Forside
METAR-TAF:

METAR-TAF

Lufthavne :

Leuchars, Skotland

Breddekreds: 56-23N, længdekreds: 002-52W, højde: 12 m

Aktuelle vejr

Denne rapport blev lavet for 1 time og 15 minutter siden, kl. 12:50 UTC
Vind 7 kt fra vestnordvest
Temperatur 10°C
Fugtighed 53%
Tryk 1033 hPa
Sigt 10 km eller mere
Brudte skyer i en højde af 3900 ft

METAR: EGQL 311250Z 30007KT 9999 BKN039 10/01 Q1033 BLU

Tid: 15:05 (14:05 UTC)

Vejrudsigter

Denne rapport blev lavet for 3 timer og 51 minutter siden, kl. 10:14 UTC
Foreløbig gælder fra 31 på 12 UTC til 31 på 21 UTC
Vind 8 kt fra vestnordvest
Sigt 10 km eller mere
Brudte skyer i en højde af 3500 ft

TAF: EGQL 311014Z 3112/3121 30008KT 9999 BKN035

Vejrobservationer og prognoser fra mere end 4000 lufthavne (METAR og TAF).

De gule og røde prikker repræsenterer de meteorologiske stationer.

Flyt musen over at se navnet på stationen.

Så klik over at se vejr observationer og prognoser.

At skifte det kort: Klik på de grønne knapper med et sort kors for at zoome ind; på den grønne knap med en bindestreg for at zoome ud; eller på de grønne pile for tilstødende kort.


METAR-TAF: